createdAt,value
2024-03-24T00:00:15.516Z,61.47
2024-03-24T00:00:46.946Z,60.89
2024-03-24T00:01:18.369Z,60.45
2024-03-24T00:01:49.787Z,60.37
2024-03-24T00:02:21.191Z,60.59
2024-03-24T00:02:52.603Z,60.76
2024-03-24T00:03:24.008Z,60.51
2024-03-24T00:03:55.423Z,60.51
2024-03-24T00:04:26.853Z,60.41
2024-03-24T00:04:58.265Z,60.49
2024-03-24T00:05:29.683Z,60.45
2024-03-24T00:06:01.106Z,60.54
2024-03-24T00:06:32.512Z,60.58
2024-03-24T00:07:04.422Z,60.63
2024-03-24T00:07:35.820Z,60.62
2024-03-24T00:08:07.250Z,60.34
2024-03-24T00:08:38.662Z,60.42
2024-03-24T00:09:13.509Z,60.63
2024-03-24T00:09:45.959Z,60.72
2024-03-24T00:10:17.395Z,60.73
2024-03-24T00:10:49.080Z,60.60
2024-03-24T00:11:20.484Z,60.59
2024-03-24T00:11:52.028Z,60.54
2024-03-24T00:12:23.460Z,60.73
2024-03-24T00:12:54.864Z,61.01
2024-03-24T00:13:26.277Z,61.05
2024-03-24T00:13:57.683Z,60.91
2024-03-24T00:14:29.276Z,60.86
2024-03-24T00:15:00.797Z,61.15
2024-03-24T00:15:32.680Z,61.03
2024-03-24T00:16:04.387Z,61.09
2024-03-24T00:16:35.896Z,61.32
2024-03-24T00:17:07.369Z,61.32
2024-03-24T00:17:38.822Z,61.27
2024-03-24T00:18:10.212Z,61.13
2024-03-24T00:18:41.626Z,61.13
2024-03-24T00:19:13.742Z,61.24
2024-03-24T00:19:45.149Z,61.23
2024-03-24T00:20:16.707Z,61.33
2024-03-24T00:20:48.157Z,61.36
2024-03-24T00:21:19.570Z,61.44
2024-03-24T00:21:51.007Z,61.24
2024-03-24T00:22:22.795Z,61.07
2024-03-24T00:22:54.222Z,61.04
2024-03-24T00:23:25.658Z,61.13
2024-03-24T00:23:57.981Z,61.17
2024-03-24T00:24:29.474Z,61.15
2024-03-24T00:25:00.889Z,61.42
2024-03-24T00:25:32.306Z,61.44
2024-03-24T00:26:03.785Z,61.12
2024-03-24T00:26:35.199Z,61.09
2024-03-24T00:27:06.603Z,61.19
2024-03-24T00:27:38.029Z,61.39
2024-03-24T00:28:09.516Z,61.58
2024-03-24T00:28:40.927Z,61.70
2024-03-24T00:29:12.345Z,61.80
2024-03-24T00:29:43.776Z,61.86
2024-03-24T00:30:15.216Z,62.10
2024-03-24T00:30:46.645Z,62.42
2024-03-24T00:31:18.068Z,62.16
2024-03-24T00:31:49.475Z,62.11
2024-03-24T00:32:20.896Z,62.11
2024-03-24T00:32:52.745Z,61.91
2024-03-24T00:33:24.221Z,61.77
2024-03-24T00:33:55.628Z,62.05
2024-03-24T00:34:27.042Z,62.14
2024-03-24T00:34:58.462Z,62.15
2024-03-24T00:35:30.579Z,62.19
2024-03-24T00:36:02.055Z,62.37
2024-03-24T00:36:33.473Z,62.31
2024-03-24T00:37:04.935Z,62.38
2024-03-24T00:37:36.553Z,62.32
2024-03-24T00:38:07.962Z,62.41
2024-03-24T00:38:40.680Z,62.39
2024-03-24T00:39:12.083Z,62.47
2024-03-24T00:39:45.491Z,62.61
2024-03-24T00:40:17.431Z,62.83
2024-03-24T00:40:48.837Z,62.80
2024-03-24T00:41:20.254Z,62.64
2024-03-24T00:41:51.672Z,62.69
2024-03-24T00:42:23.310Z,62.80
2024-03-24T00:42:55.949Z,62.84
2024-03-24T00:43:28.195Z,62.80
2024-03-24T00:43:59.743Z,62.48
2024-03-24T00:44:31.175Z,62.50
2024-03-24T00:45:02.659Z,62.65
2024-03-24T00:45:34.079Z,62.69
2024-03-24T00:46:05.556Z,62.78
2024-03-24T00:46:36.970Z,62.78
2024-03-24T00:47:08.383Z,62.92
2024-03-24T00:47:40.601Z,62.65
2024-03-24T00:48:12.035Z,62.59
2024-03-24T00:48:43.442Z,62.74
2024-03-24T00:49:14.926Z,62.88
2024-03-24T00:49:46.402Z,62.82
2024-03-24T00:50:17.923Z,62.71
2024-03-24T00:50:49.328Z,62.72
2024-03-24T00:51:20.762Z,62.71
2024-03-24T00:51:52.167Z,63.02
2024-03-24T00:52:23.581Z,63.24
2024-03-24T00:52:54.992Z,63.18
2024-03-24T00:53:26.400Z,63.10
2024-03-24T00:53:58.494Z,63.05
2024-03-24T00:54:29.925Z,62.88
2024-03-24T00:55:01.346Z,63.07
2024-03-24T00:55:32.760Z,63.07
2024-03-24T00:56:04.460Z,62.94
2024-03-24T00:56:35.876Z,62.88
2024-03-24T00:57:07.284Z,62.87
2024-03-24T00:57:38.697Z,62.92
2024-03-24T00:58:10.165Z,62.44
2024-03-24T00:58:41.579Z,62.43
2024-03-24T00:59:13.024Z,62.39
2024-03-24T00:59:44.454Z,62.25
2024-03-24T01:00:16.016Z,62.42
2024-03-24T01:00:47.811Z,62.26
2024-03-24T01:01:20.195Z,62.06
2024-03-24T01:01:51.596Z,61.91
2024-03-24T01:02:23.012Z,61.75
2024-03-24T01:02:54.663Z,61.82
2024-03-24T01:03:26.075Z,62.08
2024-03-24T01:03:57.478Z,62.16
2024-03-24T01:04:28.892Z,61.82
2024-03-24T01:05:01.140Z,61.71
2024-03-24T01:05:32.545Z,61.88
2024-03-24T01:06:04.546Z,61.71
2024-03-24T01:06:35.964Z,61.68
2024-03-24T01:07:07.404Z,61.40
2024-03-24T01:07:38.811Z,61.38
2024-03-24T01:08:10.231Z,61.33
2024-03-24T01:08:41.637Z,61.31
2024-03-24T01:09:13.873Z,61.46
2024-03-24T01:09:45.304Z,61.64
2024-03-24T01:10:17.086Z,61.67
2024-03-24T01:10:48.461Z,61.41
2024-03-24T01:11:19.877Z,60.94
2024-03-24T01:11:51.319Z,61.00
2024-03-24T01:12:24.809Z,61.09
2024-03-24T01:12:56.221Z,61.15
2024-03-24T01:13:27.640Z,61.25
2024-03-24T01:13:59.044Z,61.52
2024-03-24T01:14:31.259Z,61.24
2024-03-24T01:15:03.215Z,60.99
2024-03-24T01:15:34.723Z,61.04
2024-03-24T01:16:06.398Z,61.37
2024-03-24T01:16:37.827Z,61.13
2024-03-24T01:17:09.565Z,61.25
2024-03-24T01:17:42.414Z,61.34
2024-03-24T01:18:14.000Z,60.83
2024-03-24T01:18:45.423Z,60.58
2024-03-24T01:19:16.918Z,60.67
2024-03-24T01:19:48.514Z,60.99
2024-03-24T01:20:19.925Z,61.11
2024-03-24T01:20:51.869Z,61.09
2024-03-24T01:21:23.582Z,61.07
2024-03-24T01:21:55.001Z,61.11
2024-03-24T01:22:26.413Z,61.11
2024-03-24T01:22:57.850Z,60.92
2024-03-24T01:23:29.268Z,60.83
2024-03-24T01:24:00.678Z,60.95
2024-03-24T01:24:32.522Z,60.98
2024-03-24T01:25:04.955Z,60.84
2024-03-24T01:25:36.358Z,60.81
2024-03-24T01:26:07.796Z,60.89
2024-03-24T01:26:39.176Z,60.98
2024-03-24T01:27:10.606Z,60.92
2024-03-24T01:27:42.012Z,60.85
2024-03-24T01:28:13.423Z,60.90
2024-03-24T01:28:44.839Z,60.97
2024-03-24T01:29:16.287Z,60.94
2024-03-24T01:29:48.171Z,60.94
2024-03-24T01:30:19.585Z,60.94
2024-03-24T01:30:50.998Z,60.85
2024-03-24T01:31:22.431Z,60.99
2024-03-24T01:31:53.844Z,60.99
2024-03-24T01:32:25.316Z,61.18
2024-03-24T01:32:56.746Z,61.25
2024-03-24T01:33:28.160Z,61.08
2024-03-24T01:33:59.754Z,61.01
2024-03-24T01:34:31.130Z,61.02
2024-03-24T01:35:02.722Z,60.97
2024-03-24T01:35:34.137Z,61.10
2024-03-24T01:36:06.702Z,61.10
2024-03-24T01:36:38.133Z,61.23
2024-03-24T01:37:09.564Z,61.16
2024-03-24T01:37:41.022Z,61.09
2024-03-24T01:38:12.981Z,61.04
2024-03-24T01:38:44.389Z,60.90
2024-03-24T01:39:15.807Z,60.98
2024-03-24T01:39:48.458Z,61.29
2024-03-24T01:40:19.863Z,61.35
2024-03-24T01:40:51.761Z,61.24
2024-03-24T01:41:23.297Z,61.36
2024-03-24T01:41:54.727Z,61.18
2024-03-24T01:42:26.125Z,61.25
2024-03-24T01:42:57.695Z,61.14
2024-03-24T01:43:29.108Z,61.04
2024-03-24T01:44:00.538Z,61.07
2024-03-24T01:44:32.097Z,61.29
2024-03-24T01:45:03.870Z,61.28
2024-03-24T01:45:35.269Z,61.29
2024-03-24T01:46:06.943Z,61.55
2024-03-24T01:46:38.363Z,61.72
2024-03-24T01:47:09.856Z,61.47
2024-03-24T01:47:41.237Z,61.43
2024-03-24T01:48:13.088Z,61.44
2024-03-24T01:48:44.494Z,61.61
2024-03-24T01:49:16.386Z,61.73
2024-03-24T01:49:47.790Z,61.65
2024-03-24T01:50:19.212Z,61.70
2024-03-24T01:50:51.415Z,61.78
2024-03-24T01:51:23.315Z,61.86
2024-03-24T01:51:54.854Z,61.51
2024-03-24T01:52:26.729Z,61.44
2024-03-24T01:52:58.380Z,61.46
2024-03-24T01:53:30.519Z,61.62
2024-03-24T01:54:02.763Z,61.86
2024-03-24T01:54:37.127Z,61.84
2024-03-24T01:55:09.312Z,61.82
2024-03-24T01:55:40.728Z,61.90
2024-03-24T01:56:12.279Z,62.00
2024-03-24T01:56:44.558Z,61.70
2024-03-24T01:57:15.963Z,61.44
2024-03-24T01:57:47.857Z,61.34
2024-03-24T01:58:19.254Z,61.32
2024-03-24T01:58:50.672Z,61.36
2024-03-24T01:59:22.082Z,61.28
2024-03-24T01:59:53.560Z,61.19
2024-03-24T02:00:25.018Z,61.31
2024-03-24T02:00:56.431Z,61.58
2024-03-24T02:01:27.848Z,61.57
2024-03-24T02:01:59.264Z,61.75
2024-03-24T02:02:30.690Z,61.88
2024-03-24T02:03:02.128Z,61.88
2024-03-24T02:03:35.660Z,61.88
2024-03-24T02:04:08.470Z,62.07
2024-03-24T02:04:48.930Z,61.89
2024-03-24T02:05:27.326Z,61.73
2024-03-24T02:05:59.197Z,61.92
2024-03-24T02:06:31.767Z,61.92
2024-03-24T02:07:04.386Z,62.12
2024-03-24T02:07:35.800Z,62.19
2024-03-24T02:08:07.239Z,62.10
2024-03-24T02:08:38.676Z,62.09
2024-03-24T02:09:10.091Z,62.20
2024-03-24T02:09:42.795Z,62.12
2024-03-24T02:10:14.227Z,62.13
2024-03-24T02:10:45.638Z,62.17
2024-03-24T02:11:17.076Z,62.13
2024-03-24T02:11:49.059Z,62.24
2024-03-24T02:12:20.481Z,62.43
2024-03-24T02:12:51.893Z,62.27
2024-03-24T02:13:23.466Z,62.24
2024-03-24T02:14:02.807Z,62.42
2024-03-24T02:14:34.513Z,62.38
2024-03-24T02:15:06.297Z,62.38
2024-03-24T02:15:37.739Z,62.19
2024-03-24T02:16:09.164Z,62.18
2024-03-24T02:16:40.568Z,62.46
2024-03-24T02:17:11.989Z,62.45
2024-03-24T02:17:43.620Z,62.52
2024-03-24T02:18:15.000Z,62.71
2024-03-24T02:18:46.699Z,62.75
2024-03-24T02:19:20.192Z,62.83
2024-03-24T02:19:51.600Z,62.76
2024-03-24T02:20:23.337Z,62.81
2024-03-24T02:20:54.741Z,62.60
2024-03-24T02:21:26.311Z,62.72
2024-03-24T02:21:57.719Z,62.93
2024-03-24T02:22:33.473Z,62.75
2024-03-24T02:23:04.893Z,62.94
2024-03-24T02:23:36.302Z,62.93
2024-03-24T02:24:07.868Z,62.94
2024-03-24T02:24:39.269Z,63.01
2024-03-24T02:25:10.703Z,63.10
2024-03-24T02:25:42.368Z,62.87
2024-03-24T02:26:13.786Z,62.91
2024-03-24T02:26:45.311Z,63.07
2024-03-24T02:27:16.731Z,62.92
2024-03-24T02:27:48.162Z,62.88
2024-03-24T02:28:19.643Z,63.08
2024-03-24T02:28:54.620Z,63.02
2024-03-24T02:29:26.056Z,63.05
2024-03-24T02:29:57.815Z,63.22
2024-03-24T02:30:29.300Z,63.28
2024-03-24T02:31:01.940Z,63.32
2024-03-24T02:31:33.345Z,63.06
2024-03-24T02:32:05.239Z,63.08
2024-03-24T02:32:38.047Z,63.14
2024-03-24T02:33:09.472Z,63.30
2024-03-24T02:33:40.874Z,63.49
2024-03-24T02:34:12.452Z,63.46
2024-03-24T02:34:43.890Z,63.35
2024-03-24T02:35:15.383Z,63.34
2024-03-24T02:35:49.040Z,63.35
2024-03-24T02:36:20.452Z,63.54
2024-03-24T02:36:51.874Z,63.45
2024-03-24T02:37:23.282Z,63.53
2024-03-24T02:37:54.897Z,63.63
2024-03-24T02:38:26.319Z,63.54
2024-03-24T02:38:58.211Z,63.58
2024-03-24T02:39:29.614Z,63.69
2024-03-24T02:40:01.228Z,63.70
2024-03-24T02:40:32.648Z,63.95
2024-03-24T02:41:04.752Z,63.94
2024-03-24T02:41:36.173Z,63.94
2024-03-24T02:42:07.593Z,63.89
2024-03-24T02:42:39.432Z,64.03
2024-03-24T02:43:10.880Z,64.02
2024-03-24T02:43:42.277Z,64.02
2024-03-24T02:44:13.679Z,64.11
2024-03-24T02:44:45.111Z,64.06
2024-03-24T02:45:16.917Z,63.79
2024-03-24T02:45:57.652Z,63.68
2024-03-24T02:46:29.055Z,64.06
2024-03-24T02:47:00.477Z,64.24
2024-03-24T02:47:32.145Z,64.44
2024-03-24T02:48:03.952Z,64.34
2024-03-24T02:48:35.376Z,64.40
2024-03-24T02:49:06.788Z,64.34
2024-03-24T02:49:38.212Z,64.35
2024-03-24T02:50:09.686Z,64.47
2024-03-24T02:50:41.108Z,64.47
2024-03-24T02:51:13.068Z,64.50
2024-03-24T02:51:44.501Z,64.39
2024-03-24T02:52:15.945Z,64.47
2024-03-24T02:52:47.373Z,64.42
2024-03-24T02:53:18.937Z,64.44
2024-03-24T02:53:50.336Z,64.64
2024-03-24T02:54:21.758Z,64.79
2024-03-24T02:54:53.174Z,64.50
2024-03-24T02:55:25.298Z,64.48
2024-03-24T02:55:56.730Z,64.53
2024-03-24T02:56:28.144Z,64.50
2024-03-24T02:56:59.560Z,64.39
2024-03-24T02:57:31.238Z,64.31
2024-03-24T02:58:02.752Z,64.29
2024-03-24T02:58:34.163Z,64.37
2024-03-24T02:59:05.584Z,64.64
2024-03-24T02:59:36.991Z,64.72
2024-03-24T03:00:13.543Z,64.82
2024-03-24T03:00:44.940Z,64.67
2024-03-24T03:01:17.606Z,64.67
2024-03-24T03:01:49.017Z,64.62
2024-03-24T03:02:20.416Z,64.85
2024-03-24T03:02:52.094Z,64.65
2024-03-24T03:03:23.509Z,64.65
2024-03-24T03:03:54.940Z,64.67
2024-03-24T03:04:28.022Z,64.69
2024-03-24T03:04:59.646Z,64.64
2024-03-24T03:05:31.044Z,64.81
2024-03-24T03:06:02.549Z,64.74
2024-03-24T03:06:34.216Z,64.57
2024-03-24T03:07:05.678Z,64.77
2024-03-24T03:07:37.119Z,64.71
2024-03-24T03:08:08.832Z,64.92
2024-03-24T03:08:40.239Z,64.90
2024-03-24T03:09:14.152Z,64.84
2024-03-24T03:09:45.565Z,64.90
2024-03-24T03:10:16.995Z,64.88
2024-03-24T03:10:48.722Z,65.07
2024-03-24T03:11:20.194Z,65.21
2024-03-24T03:11:51.594Z,65.12
2024-03-24T03:12:23.551Z,64.96
2024-03-24T03:12:54.972Z,65.01
2024-03-24T03:13:26.382Z,65.07
2024-03-24T03:13:57.791Z,65.34
2024-03-24T03:14:29.214Z,65.42
2024-03-24T03:15:00.749Z,65.31
2024-03-24T03:15:32.155Z,65.39
2024-03-24T03:16:03.789Z,65.53
2024-03-24T03:16:35.695Z,65.35
2024-03-24T03:17:07.239Z,65.53
2024-03-24T03:17:38.614Z,65.55
2024-03-24T03:18:10.027Z,65.49
2024-03-24T03:18:41.822Z,65.56
2024-03-24T03:19:13.264Z,65.61
2024-03-24T03:19:44.658Z,65.47
2024-03-24T03:20:16.170Z,65.53
2024-03-24T03:20:48.022Z,65.48
2024-03-24T03:21:19.618Z,65.51
2024-03-24T03:21:51.024Z,65.53
2024-03-24T03:22:22.448Z,65.62
2024-03-24T03:22:53.850Z,65.67
2024-03-24T03:23:25.268Z,65.54
2024-03-24T03:23:56.669Z,65.57
2024-03-24T03:24:28.167Z,65.68
2024-03-24T03:24:59.586Z,65.70
2024-03-24T03:25:30.997Z,65.71
2024-03-24T03:26:02.403Z,65.81
2024-03-24T03:26:33.825Z,65.95
2024-03-24T03:27:05.231Z,66.02
2024-03-24T03:27:37.079Z,66.01
2024-03-24T03:28:08.489Z,65.93
2024-03-24T03:28:39.910Z,65.92
2024-03-24T03:29:11.336Z,65.89
2024-03-24T03:29:42.748Z,65.82
2024-03-24T03:30:14.186Z,65.87
2024-03-24T03:30:45.577Z,65.93
2024-03-24T03:31:16.995Z,65.91
2024-03-24T03:31:48.408Z,65.85
2024-03-24T03:32:19.822Z,65.98
2024-03-24T03:32:51.320Z,66.10
2024-03-24T03:33:22.722Z,66.19
2024-03-24T03:33:54.135Z,66.14
2024-03-24T03:34:25.570Z,66.18
2024-03-24T03:34:57.049Z,66.36
2024-03-24T03:35:28.465Z,66.38
2024-03-24T03:36:00.016Z,66.34
2024-03-24T03:36:31.597Z,66.27
2024-03-24T03:37:03.519Z,66.35
2024-03-24T03:37:36.550Z,66.48
2024-03-24T03:38:08.103Z,66.62
2024-03-24T03:38:39.580Z,66.35
2024-03-24T03:39:11.181Z,66.31
2024-03-24T03:39:42.590Z,66.21
2024-03-24T03:40:14.213Z,66.13
2024-03-24T03:40:45.615Z,66.25
2024-03-24T03:41:17.057Z,66.33
2024-03-24T03:41:48.471Z,66.24
2024-03-24T03:42:20.050Z,66.15
2024-03-24T03:42:51.457Z,66.26
2024-03-24T03:43:23.281Z,66.29
2024-03-24T03:43:54.681Z,66.34
2024-03-24T03:44:26.090Z,66.15
2024-03-24T03:44:57.502Z,66.03
2024-03-24T03:45:28.923Z,66.03
2024-03-24T03:46:01.907Z,66.08
2024-03-24T03:46:33.319Z,66.18
2024-03-24T03:47:04.743Z,66.14
2024-03-24T03:47:36.136Z,66.07
2024-03-24T03:48:07.667Z,66.07
2024-03-24T03:48:43.862Z,66.22
2024-03-24T03:49:16.442Z,66.09
2024-03-24T03:49:50.622Z,66.13
2024-03-24T03:50:23.177Z,66.22
2024-03-24T03:50:54.957Z,66.25
2024-03-24T03:51:39.816Z,66.16
2024-03-24T03:52:11.592Z,66.04
2024-03-24T03:52:47.854Z,66.18
2024-03-24T03:53:22.420Z,66.03
2024-03-24T03:53:55.464Z,65.94
2024-03-24T03:54:26.855Z,66.07
2024-03-24T03:55:00.511Z,65.92
2024-03-24T03:55:33.643Z,66.12
2024-03-24T03:56:06.280Z,66.28
2024-03-24T03:56:38.620Z,66.11
2024-03-24T03:57:10.034Z,65.99
2024-03-24T03:57:42.247Z,66.03
2024-03-24T03:58:13.665Z,66.12
2024-03-24T03:58:45.082Z,66.14
2024-03-24T03:59:17.101Z,66.00
2024-03-24T03:59:48.499Z,66.06
2024-03-24T04:00:19.951Z,66.11
2024-03-24T04:00:51.352Z,66.09
2024-03-24T04:01:22.755Z,66.08
2024-03-24T04:01:54.174Z,66.11
2024-03-24T04:02:25.913Z,65.98
2024-03-24T04:02:57.617Z,66.01
2024-03-24T04:03:29.036Z,66.04
2024-03-24T04:04:00.454Z,65.99
2024-03-24T04:04:31.880Z,66.05
2024-03-24T04:05:04.080Z,65.90
2024-03-24T04:05:37.994Z,65.91
2024-03-24T04:06:09.405Z,65.92
2024-03-24T04:06:40.821Z,65.93
2024-03-24T04:07:12.235Z,66.02
2024-03-24T04:07:44.077Z,66.06
2024-03-24T04:08:15.761Z,65.97
2024-03-24T04:08:47.195Z,66.09
2024-03-24T04:09:18.900Z,66.14
2024-03-24T04:09:50.337Z,66.13
2024-03-24T04:10:21.733Z,66.01
2024-03-24T04:10:53.210Z,66.13
2024-03-24T04:11:24.622Z,66.18
2024-03-24T04:11:56.029Z,66.25
2024-03-24T04:12:27.444Z,66.24
2024-03-24T04:12:58.852Z,66.35
2024-03-24T04:13:30.266Z,66.22
2024-03-24T04:14:01.680Z,66.16
2024-03-24T04:14:33.089Z,66.24
2024-03-24T04:15:05.028Z,66.37
2024-03-24T04:15:45.380Z,66.35
2024-03-24T04:16:17.073Z,66.29
2024-03-24T04:16:48.530Z,66.24
2024-03-24T04:17:19.939Z,66.04
2024-03-24T04:17:51.346Z,66.05
2024-03-24T04:18:22.769Z,66.04
2024-03-24T04:18:54.173Z,65.95
2024-03-24T04:19:25.960Z,65.89
2024-03-24T04:20:04.168Z,65.95
2024-03-24T04:20:36.698Z,65.99
2024-03-24T04:21:08.080Z,66.02
2024-03-24T04:21:39.493Z,66.35
2024-03-24T04:22:10.922Z,66.20
2024-03-24T04:22:43.745Z,66.03
2024-03-24T04:23:15.222Z,65.82
2024-03-24T04:23:46.621Z,65.71
2024-03-24T04:24:18.103Z,65.70
2024-03-24T04:24:49.983Z,65.77
2024-03-24T04:25:21.399Z,65.81
2024-03-24T04:25:55.970Z,65.71
2024-03-24T04:26:27.365Z,65.78
2024-03-24T04:26:59.836Z,66.03
2024-03-24T04:27:32.311Z,65.75
2024-03-24T04:28:03.870Z,65.63
2024-03-24T04:28:35.264Z,65.90
2024-03-24T04:29:06.690Z,65.69
2024-03-24T04:29:38.107Z,65.52
2024-03-24T04:30:09.970Z,65.37
2024-03-24T04:30:41.365Z,65.68
2024-03-24T04:31:12.814Z,65.45
2024-03-24T04:31:44.218Z,65.29
2024-03-24T04:32:15.634Z,64.92
2024-03-24T04:32:47.085Z,64.67
2024-03-24T04:33:18.496Z,64.48
2024-03-24T04:33:50.017Z,64.43
2024-03-24T04:34:21.488Z,64.58
2024-03-24T04:34:52.902Z,64.65
2024-03-24T04:35:24.333Z,64.18
2024-03-24T04:35:55.744Z,63.86
2024-03-24T04:36:27.176Z,63.62
2024-03-24T04:36:59.258Z,63.42
2024-03-24T04:37:30.680Z,63.39
2024-03-24T04:38:02.076Z,63.56
2024-03-24T04:38:33.491Z,63.63
2024-03-24T04:39:04.906Z,63.89
2024-03-24T04:39:36.316Z,63.85
2024-03-24T04:40:08.847Z,63.91
2024-03-24T04:40:40.258Z,63.62
2024-03-24T04:41:13.419Z,63.14
2024-03-24T04:41:49.126Z,63.04
2024-03-24T04:42:20.665Z,62.96
2024-03-24T04:42:52.074Z,63.07
2024-03-24T04:43:23.492Z,63.22
2024-03-24T04:43:55.764Z,63.21
2024-03-24T04:44:27.174Z,63.16
2024-03-24T04:44:58.776Z,63.21
2024-03-24T04:45:30.467Z,63.16
2024-03-24T04:46:01.877Z,62.88
2024-03-24T04:46:34.070Z,62.69
2024-03-24T04:47:06.048Z,62.74
2024-03-24T04:47:37.441Z,62.69
2024-03-24T04:48:08.877Z,62.64
2024-03-24T04:48:40.325Z,62.87
2024-03-24T04:49:11.743Z,63.00
2024-03-24T04:49:43.149Z,62.92
2024-03-24T04:50:14.737Z,63.04
2024-03-24T04:50:46.147Z,63.08
2024-03-24T04:51:18.928Z,63.10
2024-03-24T04:51:50.340Z,63.16
2024-03-24T04:52:22.225Z,62.90
2024-03-24T04:52:53.629Z,62.85
2024-03-24T04:53:26.238Z,62.78
2024-03-24T04:53:57.883Z,62.71
2024-03-24T04:54:29.290Z,62.75
2024-03-24T04:55:01.173Z,62.81
2024-03-24T04:55:32.592Z,62.85
2024-03-24T04:56:04.178Z,63.10
2024-03-24T04:56:35.670Z,63.15
2024-03-24T04:57:07.110Z,62.72
2024-03-24T04:57:38.646Z,62.87
2024-03-24T04:58:10.158Z,62.99
2024-03-24T04:58:41.558Z,62.98
2024-03-24T04:59:12.970Z,62.81
2024-03-24T04:59:44.385Z,62.71
2024-03-24T05:00:16.216Z,63.09
2024-03-24T05:00:47.624Z,63.25
2024-03-24T05:01:19.042Z,63.05
2024-03-24T05:01:50.447Z,62.90
2024-03-24T05:02:21.866Z,62.65
2024-03-24T05:02:53.289Z,62.73
2024-03-24T05:03:24.681Z,62.76
2024-03-24T05:03:56.095Z,62.66
2024-03-24T05:04:28.295Z,62.86
2024-03-24T05:04:59.700Z,62.49
2024-03-24T05:05:31.125Z,62.23
2024-03-24T05:06:02.611Z,62.27
2024-03-24T05:06:34.049Z,62.19
2024-03-24T05:07:05.442Z,62.09
2024-03-24T05:07:37.213Z,62.21
2024-03-24T05:08:09.061Z,62.40
2024-03-24T05:08:40.463Z,62.58
2024-03-24T05:09:11.867Z,62.79
2024-03-24T05:09:43.615Z,62.89
2024-03-24T05:10:15.244Z,62.56
2024-03-24T05:10:46.642Z,62.41
2024-03-24T05:11:18.054Z,62.26
2024-03-24T05:11:49.461Z,62.10
2024-03-24T05:12:20.878Z,62.18
2024-03-24T05:12:52.296Z,62.15
2024-03-24T05:13:23.709Z,62.43
2024-03-24T05:13:55.352Z,62.54
2024-03-24T05:14:26.996Z,62.71
2024-03-24T05:14:59.287Z,62.66
2024-03-24T05:15:31.746Z,62.39
2024-03-24T05:16:03.382Z,62.48
2024-03-24T05:16:37.098Z,62.44
2024-03-24T05:17:08.492Z,62.32
2024-03-24T05:17:40.223Z,62.21
2024-03-24T05:18:12.766Z,62.17
2024-03-24T05:18:44.185Z,62.10
2024-03-24T05:19:15.628Z,62.17
2024-03-24T05:19:47.021Z,62.18
2024-03-24T05:20:18.468Z,62.11
2024-03-24T05:20:50.015Z,62.28
2024-03-24T05:21:22.323Z,62.34
2024-03-24T05:21:53.861Z,62.40
2024-03-24T05:22:25.252Z,62.36
2024-03-24T05:22:56.663Z,62.41
2024-03-24T05:23:28.202Z,62.15
2024-03-24T05:23:59.780Z,62.21
2024-03-24T05:24:31.981Z,62.16
2024-03-24T05:25:04.565Z,62.18
2024-03-24T05:25:39.350Z,62.10
2024-03-24T05:26:10.757Z,62.33
2024-03-24T05:26:42.207Z,62.42
2024-03-24T05:27:15.658Z,62.27
2024-03-24T05:27:47.076Z,62.10
2024-03-24T05:28:18.996Z,62.23
2024-03-24T05:28:55.790Z,62.51
2024-03-24T05:29:27.610Z,62.72
2024-03-24T05:29:59.010Z,62.63
2024-03-24T05:30:30.414Z,62.03
2024-03-24T05:31:01.960Z,61.75
2024-03-24T05:31:33.743Z,61.66
2024-03-24T05:32:05.596Z,61.83
2024-03-24T05:32:37.028Z,61.92
2024-03-24T05:33:09.112Z,62.19
2024-03-24T05:33:41.025Z,62.18
2024-03-24T05:34:12.417Z,62.14
2024-03-24T05:34:44.020Z,61.67
2024-03-24T05:35:15.484Z,61.53
2024-03-24T05:35:47.368Z,61.33
2024-03-24T05:36:18.819Z,61.40
2024-03-24T05:36:50.217Z,61.35
2024-03-24T05:37:21.657Z,61.58
2024-03-24T05:37:53.040Z,61.47
2024-03-24T05:38:24.666Z,61.30
2024-03-24T05:38:57.782Z,61.33
2024-03-24T05:39:29.192Z,61.38
2024-03-24T05:40:00.625Z,61.54
2024-03-24T05:40:32.027Z,61.54
2024-03-24T05:41:04.238Z,61.46
2024-03-24T05:41:35.708Z,61.56
2024-03-24T05:42:07.342Z,61.44
2024-03-24T05:42:38.938Z,61.52
2024-03-24T05:43:10.347Z,61.61
2024-03-24T05:43:42.506Z,61.60
2024-03-24T05:44:14.927Z,61.74
2024-03-24T05:44:46.341Z,61.65
2024-03-24T05:45:17.874Z,61.61
2024-03-24T05:45:49.259Z,61.67
2024-03-24T05:46:20.673Z,61.55
2024-03-24T05:46:52.102Z,61.41
2024-03-24T05:47:23.515Z,61.47
2024-03-24T05:47:54.909Z,61.70
2024-03-24T05:48:26.323Z,61.94
2024-03-24T05:48:57.750Z,62.24
2024-03-24T05:49:29.156Z,61.86
2024-03-24T05:50:01.476Z,61.71
2024-03-24T05:50:32.886Z,61.28
2024-03-24T05:51:06.300Z,61.26
2024-03-24T05:51:38.116Z,61.65
2024-03-24T05:52:09.524Z,61.63
2024-03-24T05:52:42.452Z,61.63
2024-03-24T05:53:13.842Z,61.63
2024-03-24T05:53:45.280Z,61.35
2024-03-24T05:54:16.696Z,61.12
2024-03-24T05:54:48.097Z,61.20
2024-03-24T05:55:19.542Z,61.43
2024-03-24T05:55:51.042Z,61.56
2024-03-24T05:56:22.441Z,61.53
2024-03-24T05:56:53.867Z,61.58
2024-03-24T05:57:25.272Z,61.43
2024-03-24T05:57:56.688Z,61.36
2024-03-24T05:58:29.414Z,61.24
2024-03-24T05:59:00.816Z,60.69
2024-03-24T05:59:32.222Z,60.54
2024-03-24T06:00:04.923Z,60.87
2024-03-24T06:00:36.344Z,61.25
2024-03-24T06:01:07.792Z,61.17
2024-03-24T06:01:39.776Z,60.76
2024-03-24T06:02:11.886Z,60.32
2024-03-24T06:02:43.295Z,60.08
2024-03-24T06:03:14.705Z,60.53
2024-03-24T06:03:46.117Z,61.00
2024-03-24T06:04:17.530Z,61.05
2024-03-24T06:04:48.937Z,60.92
2024-03-24T06:05:20.367Z,60.71
2024-03-24T06:05:51.798Z,60.46
2024-03-24T06:06:24.975Z,60.44
2024-03-24T06:06:56.370Z,60.42
2024-03-24T06:07:29.263Z,60.45
2024-03-24T06:08:00.690Z,60.29
2024-03-24T06:08:34.756Z,60.31
2024-03-24T06:09:06.574Z,60.35
2024-03-24T06:09:38.412Z,59.89
2024-03-24T06:10:09.832Z,59.82
2024-03-24T06:10:43.568Z,59.95
2024-03-24T06:11:14.980Z,60.01
2024-03-24T06:11:46.413Z,60.28
2024-03-24T06:12:17.874Z,60.32
2024-03-24T06:12:49.286Z,60.18
2024-03-24T06:13:21.149Z,60.13
2024-03-24T06:13:52.547Z,60.14
2024-03-24T06:14:23.958Z,60.35
2024-03-24T06:14:55.375Z,60.17
2024-03-24T06:15:26.785Z,59.71
2024-03-24T06:15:59.123Z,59.84
2024-03-24T06:16:30.538Z,59.69
2024-03-24T06:17:01.963Z,59.46
2024-03-24T06:17:33.357Z,59.64
2024-03-24T06:18:05.237Z,59.80
2024-03-24T06:18:36.759Z,60.22
2024-03-24T06:19:09.792Z,60.55
2024-03-24T06:19:42.371Z,60.35
2024-03-24T06:20:13.862Z,60.04
2024-03-24T06:20:45.274Z,60.22
2024-03-24T06:21:16.680Z,60.19
2024-03-24T06:21:49.322Z,59.96
2024-03-24T06:22:20.771Z,60.06
2024-03-24T06:22:52.185Z,60.42
2024-03-24T06:23:23.606Z,60.40
2024-03-24T06:23:55.000Z,60.44
2024-03-24T06:24:26.858Z,60.29
2024-03-24T06:24:58.268Z,60.00
2024-03-24T06:25:30.465Z,59.71
2024-03-24T06:26:01.870Z,59.55
2024-03-24T06:26:33.289Z,59.59
2024-03-24T06:27:04.846Z,59.90
2024-03-24T06:27:36.311Z,59.62
2024-03-24T06:28:07.693Z,59.66
2024-03-24T06:28:39.104Z,59.75
2024-03-24T06:29:10.893Z,59.25
2024-03-24T06:29:42.280Z,58.97
2024-03-24T06:30:13.752Z,58.84
2024-03-24T06:30:45.165Z,58.49
2024-03-24T06:31:16.581Z,58.31
2024-03-24T06:31:47.980Z,58.38
2024-03-24T06:32:19.468Z,58.43
2024-03-24T06:32:51.018Z,58.58
2024-03-24T06:33:22.452Z,58.56
2024-03-24T06:33:56.567Z,58.85
2024-03-24T06:34:27.979Z,59.27
2024-03-24T06:34:59.421Z,59.38
2024-03-24T06:35:30.848Z,59.29
2024-03-24T06:36:02.424Z,58.68
2024-03-24T06:36:34.583Z,58.62
2024-03-24T06:37:05.999Z,59.18
2024-03-24T06:37:40.307Z,58.78
2024-03-24T06:38:11.737Z,58.90
2024-03-24T06:38:43.155Z,59.25
2024-03-24T06:39:14.558Z,59.35
2024-03-24T06:39:45.972Z,59.10
2024-03-24T06:40:17.419Z,59.37
2024-03-24T06:40:48.821Z,59.38
2024-03-24T06:41:20.323Z,59.45
2024-03-24T06:41:53.027Z,59.25
2024-03-24T06:42:24.405Z,58.92
2024-03-24T06:43:03.022Z,59.39
2024-03-24T06:43:42.014Z,59.26
2024-03-24T06:44:13.418Z,59.03
2024-03-24T06:44:46.692Z,58.93
2024-03-24T06:45:18.100Z,58.74
2024-03-24T06:45:52.812Z,59.02
2024-03-24T06:46:24.373Z,59.27
2024-03-24T06:46:55.794Z,58.62
2024-03-24T06:47:27.222Z,58.21
2024-03-24T06:48:00.480Z,57.89
2024-03-24T06:48:31.908Z,57.77
2024-03-24T06:49:03.323Z,58.10
2024-03-24T06:49:34.755Z,57.84